sensor_id;sensor_type;location;lat;lon;timestamp;P1;durP1;ratioP1;P2;durP2;ratioP2
12314;SDS011;23886;46.614;14.276;2022-09-09T00:00:54;3.00;;;2.20;;
12314;SDS011;23886;46.614;14.276;2022-09-09T00:03:27;3.63;;;2.50;;
12314;SDS011;23886;46.614;14.276;2022-09-09T00:06:00;2.83;;;2.20;;
12314;SDS011;23886;46.614;14.276;2022-09-09T00:08:37;4.30;;;2.10;;
12314;SDS011;23886;46.614;14.276;2022-09-09T00:11:12;4.50;;;2.20;;
12314;SDS011;23886;46.614;14.276;2022-09-09T00:13:42;3.93;;;2.50;;
12314;SDS011;23886;46.614;14.276;2022-09-09T00:16:17;3.47;;;2.33;;
12314;SDS011;23886;46.614;14.276;2022-09-09T00:18:51;4.80;;;2.30;;
12314;SDS011;23886;46.614;14.276;2022-09-09T00:21:23;6.13;;;2.53;;
12314;SDS011;23886;46.614;14.276;2022-09-09T00:23:57;3.20;;;2.03;;
12314;SDS011;23886;46.614;14.276;2022-09-09T00:26:27;3.27;;;1.97;;
12314;SDS011;23886;46.614;14.276;2022-09-09T00:29:04;2.17;;;1.97;;
12314;SDS011;23886;46.614;14.276;2022-09-09T00:31:42;4.93;;;2.20;;
12314;SDS011;23886;46.614;14.276;2022-09-09T00:34:11;2.73;;;2.13;;
12314;SDS011;23886;46.614;14.276;2022-09-09T00:36:39;3.77;;;2.17;;
12314;SDS011;23886;46.614;14.276;2022-09-09T00:39:09;3.30;;;2.20;;
12314;SDS011;23886;46.614;14.276;2022-09-09T00:41:46;4.90;;;2.30;;
12314;SDS011;23886;46.614;14.276;2022-09-09T00:44:27;4.80;;;2.37;;
12314;SDS011;23886;46.614;14.276;2022-09-09T00:47:01;3.63;;;2.20;;
12314;SDS011;23886;46.614;14.276;2022-09-09T00:49:40;4.53;;;2.20;;
12314;SDS011;23886;46.614;14.276;2022-09-09T00:52:23;5.40;;;2.50;;
12314;SDS011;23886;46.614;14.276;2022-09-09T00:55:03;3.97;;;2.33;;
12314;SDS011;23886;46.614;14.276;2022-09-09T00:57:36;8.07;;;2.70;;
12314;SDS011;23886;46.614;14.276;2022-09-09T01:00:17;9.77;;;2.70;;
12314;SDS011;23886;46.614;14.276;2022-09-09T01:05:58;3.47;;;2.17;;
12314;SDS011;23886;46.614;14.276;2022-09-09T01:08:44;5.13;;;2.57;;
12314;SDS011;23886;46.614;14.276;2022-09-09T01:11:22;3.90;;;2.50;;
12314;SDS011;23886;46.614;14.276;2022-09-09T01:13:54;3.87;;;2.50;;
12314;SDS011;23886;46.614;14.276;2022-09-09T01:16:28;4.23;;;2.33;;
12314;SDS011;23886;46.614;14.276;2022-09-09T01:18:56;4.67;;;2.43;;
12314;SDS011;23886;46.614;14.276;2022-09-09T01:21:30;5.60;;;2.50;;
12314;SDS011;23886;46.614;14.276;2022-09-09T01:24:08;6.77;;;2.60;;
12314;SDS011;23886;46.614;14.276;2022-09-09T01:26:46;5.47;;;2.30;;
12314;SDS011;23886;46.614;14.276;2022-09-09T01:29:16;4.13;;;2.40;;
12314;SDS011;23886;46.614;14.276;2022-09-09T01:31:51;6.00;;;2.87;;
12314;SDS011;23886;46.614;14.276;2022-09-09T01:34:20;4.17;;;2.60;;
12314;SDS011;23886;46.614;14.276;2022-09-09T01:36:49;5.03;;;2.60;;
12314;SDS011;23886;46.614;14.276;2022-09-09T01:39:22;3.60;;;2.30;;
12314;SDS011;23886;46.614;14.276;2022-09-09T01:41:51;5.07;;;2.60;;
12314;SDS011;23886;46.614;14.276;2022-09-09T01:44:19;4.10;;;2.47;;
12314;SDS011;23886;46.614;14.276;2022-09-09T01:46:46;3.60;;;2.57;;
12314;SDS011;23886;46.614;14.276;2022-09-09T01:49:14;3.70;;;2.50;;
12314;SDS011;23886;46.614;14.276;2022-09-09T01:51:42;5.87;;;2.60;;
12314;SDS011;23886;46.614;14.276;2022-09-09T01:54:12;3.47;;;2.50;;
12314;SDS011;23886;46.614;14.276;2022-09-09T01:56:43;4.57;;;2.50;;
12314;SDS011;23886;46.614;14.276;2022-09-09T01:59:36;4.67;;;2.57;;
12314;SDS011;23886;46.614;14.276;2022-09-09T02:02:16;2.57;;;2.33;;
12314;SDS011;23886;46.614;14.276;2022-09-09T02:04:45;3.87;;;2.23;;
12314;SDS011;23886;46.614;14.276;2022-09-09T02:07:28;6.40;;;2.40;;
12314;SDS011;23886;46.614;14.276;2022-09-09T02:10:06;4.57;;;2.20;;
12314;SDS011;23886;46.614;14.276;2022-09-09T02:12:38;2.33;;;1.97;;
12314;SDS011;23886;46.614;14.276;2022-09-09T02:15:14;5.97;;;2.57;;
12314;SDS011;23886;46.614;14.276;2022-09-09T02:17:46;6.37;;;2.30;;
12314;SDS011;23886;46.614;14.276;2022-09-09T02:20:17;2.83;;;2.03;;
12314;SDS011;23886;46.614;14.276;2022-09-09T02:22:46;4.20;;;2.23;;
12314;SDS011;23886;46.614;14.276;2022-09-09T02:25:18;3.97;;;2.47;;
12314;SDS011;23886;46.614;14.276;2022-09-09T02:27:47;3.77;;;2.57;;
12314;SDS011;23886;46.614;14.276;2022-09-09T02:30:18;4.70;;;2.37;;
12314;SDS011;23886;46.614;14.276;2022-09-09T02:32:45;4.20;;;2.50;;
12314;SDS011;23886;46.614;14.276;2022-09-09T02:35:15;4.10;;;2.70;;
12314;SDS011;23886;46.614;14.276;2022-09-09T02:37:46;5.40;;;2.90;;
12314;SDS011;23886;46.614;14.276;2022-09-09T02:40:13;4.87;;;2.50;;
12314;SDS011;23886;46.614;14.276;2022-09-09T02:42:42;4.63;;;2.60;;
12314;SDS011;23886;46.614;14.276;2022-09-09T02:45:11;3.83;;;2.80;;
12314;SDS011;23886;46.614;14.276;2022-09-09T02:47:43;4.33;;;2.50;;
12314;SDS011;23886;46.614;14.276;2022-09-09T02:50:17;5.40;;;2.50;;
12314;SDS011;23886;46.614;14.276;2022-09-09T02:52:54;6.07;;;2.70;;
12314;SDS011;23886;46.614;14.276;2022-09-09T02:55:34;3.70;;;2.40;;
12314;SDS011;23886;46.614;14.276;2022-09-09T02:58:09;6.20;;;2.87;;
12314;SDS011;23886;46.614;14.276;2022-09-09T03:00:39;4.77;;;2.90;;
12314;SDS011;23886;46.614;14.276;2022-09-09T03:03:07;5.90;;;3.07;;
12314;SDS011;23886;46.614;14.276;2022-09-09T03:05:35;4.60;;;2.77;;
12314;SDS011;23886;46.614;14.276;2022-09-09T03:08:02;3.10;;;2.37;;
12314;SDS011;23886;46.614;14.276;2022-09-09T03:10:30;4.00;;;2.60;;
12314;SDS011;23886;46.614;14.276;2022-09-09T03:12:57;5.00;;;2.80;;
12314;SDS011;23886;46.614;14.276;2022-09-09T03:15:24;5.07;;;2.37;;
12314;SDS011;23886;46.614;14.276;2022-09-09T03:17:54;5.53;;;2.60;;
12314;SDS011;23886;46.614;14.276;2022-09-09T03:20:23;3.50;;;2.60;;
12314;SDS011;23886;46.614;14.276;2022-09-09T03:22:51;6.10;;;2.60;;
12314;SDS011;23886;46.614;14.276;2022-09-09T03:25:19;4.90;;;2.30;;
12314;SDS011;23886;46.614;14.276;2022-09-09T03:27:49;2.37;;;2.10;;
12314;SDS011;23886;46.614;14.276;2022-09-09T03:30:18;3.40;;;2.33;;
12314;SDS011;23886;46.614;14.276;2022-09-09T03:32:45;5.27;;;2.40;;
12314;SDS011;23886;46.614;14.276;2022-09-09T03:35:12;2.83;;;2.47;;
12314;SDS011;23886;46.614;14.276;2022-09-09T03:37:40;4.50;;;2.53;;
12314;SDS011;23886;46.614;14.276;2022-09-09T03:40:08;7.77;;;2.30;;
12314;SDS011;23886;46.614;14.276;2022-09-09T03:42:36;5.97;;;2.80;;
12314;SDS011;23886;46.614;14.276;2022-09-09T03:45:03;5.57;;;2.47;;
12314;SDS011;23886;46.614;14.276;2022-09-09T03:47:31;2.40;;;2.20;;
12314;SDS011;23886;46.614;14.276;2022-09-09T03:49:58;2.47;;;2.10;;
12314;SDS011;23886;46.614;14.276;2022-09-09T03:52:25;3.50;;;2.40;;
12314;SDS011;23886;46.614;14.276;2022-09-09T03:54:54;3.27;;;2.33;;
12314;SDS011;23886;46.614;14.276;2022-09-09T03:57:21;3.90;;;2.63;;
12314;SDS011;23886;46.614;14.276;2022-09-09T03:59:48;5.53;;;2.57;;
12314;SDS011;23886;46.614;14.276;2022-09-09T04:02:15;11.93;;;3.07;;
12314;SDS011;23886;46.614;14.276;2022-09-09T04:04:42;8.53;;;3.07;;
12314;SDS011;23886;46.614;14.276;2022-09-09T04:07:09;4.27;;;2.73;;
12314;SDS011;23886;46.614;14.276;2022-09-09T04:09:37;3.50;;;2.73;;
12314;SDS011;23886;46.614;14.276;2022-09-09T04:12:05;3.73;;;2.60;;
12314;SDS011;23886;46.614;14.276;2022-09-09T04:14:32;3.50;;;2.80;;
12314;SDS011;23886;46.614;14.276;2022-09-09T04:16:59;5.63;;;3.30;;
12314;SDS011;23886;46.614;14.276;2022-09-09T04:19:29;7.73;;;2.50;;
12314;SDS011;23886;46.614;14.276;2022-09-09T04:21:56;5.23;;;2.50;;
12314;SDS011;23886;46.614;14.276;2022-09-09T04:24:24;5.70;;;2.83;;
12314;SDS011;23886;46.614;14.276;2022-09-09T04:26:52;6.50;;;2.87;;
12314;SDS011;23886;46.614;14.276;2022-09-09T04:29:20;3.37;;;2.53;;
12314;SDS011;23886;46.614;14.276;2022-09-09T04:31:47;6.47;;;2.80;;
12314;SDS011;23886;46.614;14.276;2022-09-09T04:34:14;3.13;;;2.67;;
12314;SDS011;23886;46.614;14.276;2022-09-09T04:36:42;5.57;;;3.30;;
12314;SDS011;23886;46.614;14.276;2022-09-09T04:39:09;5.00;;;2.80;;
12314;SDS011;23886;46.614;14.276;2022-09-09T04:41:36;2.90;;;2.70;;
12314;SDS011;23886;46.614;14.276;2022-09-09T04:44:03;9.13;;;2.47;;
12314;SDS011;23886;46.614;14.276;2022-09-09T04:46:32;5.30;;;2.40;;
12314;SDS011;23886;46.614;14.276;2022-09-09T04:49:00;3.80;;;2.60;;
12314;SDS011;23886;46.614;14.276;2022-09-09T04:51:27;4.67;;;1.93;;
12314;SDS011;23886;46.614;14.276;2022-09-09T04:53:56;2.90;;;1.77;;
12314;SDS011;23886;46.614;14.276;2022-09-09T04:56:23;4.17;;;1.73;;
12314;SDS011;23886;46.614;14.276;2022-09-09T04:58:52;2.73;;;2.00;;
12314;SDS011;23886;46.614;14.276;2022-09-09T05:01:19;2.53;;;1.97;;
12314;SDS011;23886;46.614;14.276;2022-09-09T05:03:50;2.80;;;2.00;;
12314;SDS011;23886;46.614;14.276;2022-09-09T05:06:19;2.60;;;1.83;;
12314;SDS011;23886;46.614;14.276;2022-09-09T05:08:47;3.30;;;2.30;;
12314;SDS011;23886;46.614;14.276;2022-09-09T05:11:18;2.60;;;2.00;;
12314;SDS011;23886;46.614;14.276;2022-09-09T05:13:47;5.00;;;2.67;;
12314;SDS011;23886;46.614;14.276;2022-09-09T05:16:15;2.83;;;2.10;;
12314;SDS011;23886;46.614;14.276;2022-09-09T05:18:43;5.77;;;2.30;;
12314;SDS011;23886;46.614;14.276;2022-09-09T05:21:13;4.00;;;2.40;;
12314;SDS011;23886;46.614;14.276;2022-09-09T05:23:41;4.80;;;2.13;;
12314;SDS011;23886;46.614;14.276;2022-09-09T05:26:09;2.67;;;2.03;;
12314;SDS011;23886;46.614;14.276;2022-09-09T05:28:39;4.47;;;2.03;;
12314;SDS011;23886;46.614;14.276;2022-09-09T05:31:07;4.23;;;2.00;;
12314;SDS011;23886;46.614;14.276;2022-09-09T05:33:37;4.73;;;2.20;;
12314;SDS011;23886;46.614;14.276;2022-09-09T05:36:07;3.67;;;2.03;;
12314;SDS011;23886;46.614;14.276;2022-09-09T05:38:37;3.67;;;2.10;;
12314;SDS011;23886;46.614;14.276;2022-09-09T05:41:04;2.17;;;1.97;;
12314;SDS011;23886;46.614;14.276;2022-09-09T05:43:32;3.93;;;2.03;;
12314;SDS011;23886;46.614;14.276;2022-09-09T05:46:01;3.47;;;2.13;;
12314;SDS011;23886;46.614;14.276;2022-09-09T05:48:29;2.93;;;1.93;;
12314;SDS011;23886;46.614;14.276;2022-09-09T05:50:57;2.73;;;1.97;;
12314;SDS011;23886;46.614;14.276;2022-09-09T05:53:24;5.97;;;2.40;;
12314;SDS011;23886;46.614;14.276;2022-09-09T05:55:59;7.27;;;2.23;;
12314;SDS011;23886;46.614;14.276;2022-09-09T05:58:28;3.53;;;2.23;;
12314;SDS011;23886;46.614;14.276;2022-09-09T06:01:02;5.23;;;1.97;;
12314;SDS011;23886;46.614;14.276;2022-09-09T06:03:31;2.27;;;1.83;;
12314;SDS011;23886;46.614;14.276;2022-09-09T06:06:00;2.77;;;1.73;;
12314;SDS011;23886;46.614;14.276;2022-09-09T06:08:30;4.03;;;1.87;;
12314;SDS011;23886;46.614;14.276;2022-09-09T06:11:02;2.23;;;1.87;;
12314;SDS011;23886;46.614;14.276;2022-09-09T06:13:29;2.27;;;2.00;;
12314;SDS011;23886;46.614;14.276;2022-09-09T06:15:57;3.77;;;2.27;;
12314;SDS011;23886;46.614;14.276;2022-09-09T06:18:25;4.13;;;1.90;;
12314;SDS011;23886;46.614;14.276;2022-09-09T06:20:53;4.47;;;1.77;;
12314;SDS011;23886;46.614;14.276;2022-09-09T06:23:22;2.13;;;1.50;;
12314;SDS011;23886;46.614;14.276;2022-09-09T06:25:49;3.00;;;2.00;;
12314;SDS011;23886;46.614;14.276;2022-09-09T06:28:18;3.97;;;1.90;;
12314;SDS011;23886;46.614;14.276;2022-09-09T06:30:45;4.60;;;2.40;;
12314;SDS011;23886;46.614;14.276;2022-09-09T06:33:12;2.13;;;1.93;;
12314;SDS011;23886;46.614;14.276;2022-09-09T06:35:40;3.67;;;2.00;;
12314;SDS011;23886;46.614;14.276;2022-09-09T06:38:07;3.03;;;2.40;;
12314;SDS011;23886;46.614;14.276;2022-09-09T06:40:34;4.37;;;2.30;;
12314;SDS011;23886;46.614;14.276;2022-09-09T06:43:02;4.83;;;2.50;;
12314;SDS011;23886;46.614;14.276;2022-09-09T06:45:30;6.97;;;2.97;;
12314;SDS011;23886;46.614;14.276;2022-09-09T06:47:57;7.13;;;3.33;;
12314;SDS011;23886;46.614;14.276;2022-09-09T06:50:24;6.77;;;3.20;;
12314;SDS011;23886;46.614;14.276;2022-09-09T06:52:51;6.47;;;2.97;;
12314;SDS011;23886;46.614;14.276;2022-09-09T06:55:18;5.70;;;3.03;;
12314;SDS011;23886;46.614;14.276;2022-09-09T06:57:45;5.93;;;2.90;;
12314;SDS011;23886;46.614;14.276;2022-09-09T07:00:13;5.63;;;3.17;;
12314;SDS011;23886;46.614;14.276;2022-09-09T07:02:42;6.80;;;3.10;;
12314;SDS011;23886;46.614;14.276;2022-09-09T07:05:10;6.20;;;3.50;;
12314;SDS011;23886;46.614;14.276;2022-09-09T07:07:37;7.30;;;4.73;;
12314;SDS011;23886;46.614;14.276;2022-09-09T07:10:04;8.27;;;5.00;;
12314;SDS011;23886;46.614;14.276;2022-09-09T07:12:32;5.77;;;4.77;;
12314;SDS011;23886;46.614;14.276;2022-09-09T07:14:59;5.53;;;4.30;;
12314;SDS011;23886;46.614;14.276;2022-09-09T07:17:26;6.37;;;4.50;;
12314;SDS011;23886;46.614;14.276;2022-09-09T07:19:55;6.47;;;3.80;;
12314;SDS011;23886;46.614;14.276;2022-09-09T07:22:23;4.67;;;4.00;;
12314;SDS011;23886;46.614;14.276;2022-09-09T07:24:50;6.23;;;3.60;;
12314;SDS011;23886;46.614;14.276;2022-09-09T07:27:17;3.63;;;3.20;;
12314;SDS011;23886;46.614;14.276;2022-09-09T07:29:44;3.30;;;2.40;;
12314;SDS011;23886;46.614;14.276;2022-09-09T07:32:11;4.60;;;2.70;;
12314;SDS011;23886;46.614;14.276;2022-09-09T07:34:38;4.33;;;2.10;;
12314;SDS011;23886;46.614;14.276;2022-09-09T07:37:07;6.30;;;2.63;;
12314;SDS011;23886;46.614;14.276;2022-09-09T07:39:36;3.67;;;2.47;;
12314;SDS011;23886;46.614;14.276;2022-09-09T07:42:04;7.90;;;2.50;;
12314;SDS011;23886;46.614;14.276;2022-09-09T07:44:32;2.90;;;2.30;;
12314;SDS011;23886;46.614;14.276;2022-09-09T07:47:00;2.93;;;2.10;;
12314;SDS011;23886;46.614;14.276;2022-09-09T07:49:28;5.10;;;2.30;;
12314;SDS011;23886;46.614;14.276;2022-09-09T07:51:55;2.63;;;2.00;;
12314;SDS011;23886;46.614;14.276;2022-09-09T07:54:23;4.27;;;2.10;;
12314;SDS011;23886;46.614;14.276;2022-09-09T07:56:51;2.93;;;2.00;;
12314;SDS011;23886;46.614;14.276;2022-09-09T07:59:18;2.47;;;2.00;;
12314;SDS011;23886;46.614;14.276;2022-09-09T08:01:46;3.33;;;2.03;;
12314;SDS011;23886;46.614;14.276;2022-09-09T08:04:16;6.53;;;1.90;;
12314;SDS011;23886;46.614;14.276;2022-09-09T08:06:45;2.57;;;2.00;;
12314;SDS011;23886;46.614;14.276;2022-09-09T08:09:14;2.70;;;1.87;;
12314;SDS011;23886;46.614;14.276;2022-09-09T08:11:43;3.70;;;2.00;;
12314;SDS011;23886;46.614;14.276;2022-09-09T08:14:10;4.77;;;4.30;;
12314;SDS011;23886;46.614;14.276;2022-09-09T08:16:39;4.83;;;2.43;;
12314;SDS011;23886;46.614;14.276;2022-09-09T08:19:08;4.90;;;2.50;;
12314;SDS011;23886;46.614;14.276;2022-09-09T08:21:36;3.20;;;2.20;;
12314;SDS011;23886;46.614;14.276;2022-09-09T08:24:05;3.73;;;2.43;;
12314;SDS011;23886;46.614;14.276;2022-09-09T08:26:33;3.20;;;2.27;;
12314;SDS011;23886;46.614;14.276;2022-09-09T08:29:04;5.00;;;2.27;;
12314;SDS011;23886;46.614;14.276;2022-09-09T08:31:33;3.93;;;2.13;;
12314;SDS011;23886;46.614;14.276;2022-09-09T08:34:02;6.00;;;2.37;;
12314;SDS011;23886;46.614;14.276;2022-09-09T08:36:32;7.87;;;2.63;;
12314;SDS011;23886;46.614;14.276;2022-09-09T08:39:01;4.63;;;2.37;;
12314;SDS011;23886;46.614;14.276;2022-09-09T08:44:52;3.83;;;2.40;;
12314;SDS011;23886;46.614;14.276;2022-09-09T08:47:28;4.70;;;2.63;;
12314;SDS011;23886;46.614;14.276;2022-09-09T08:50:15;3.80;;;2.60;;
12314;SDS011;23886;46.614;14.276;2022-09-09T08:52:51;3.37;;;2.40;;
12314;SDS011;23886;46.614;14.276;2022-09-09T08:55:24;3.27;;;2.10;;
12314;SDS011;23886;46.614;14.276;2022-09-09T08:57:57;5.73;;;2.60;;
12314;SDS011;23886;46.614;14.276;2022-09-09T09:00:30;6.50;;;2.70;;
12314;SDS011;23886;46.614;14.276;2022-09-09T09:03:09;7.27;;;2.97;;
12314;SDS011;23886;46.614;14.276;2022-09-09T09:05:44;3.77;;;2.40;;
12314;SDS011;23886;46.614;14.276;2022-09-09T09:08:17;3.50;;;2.40;;
12314;SDS011;23886;46.614;14.276;2022-09-09T09:10:52;4.17;;;2.50;;
12314;SDS011;23886;46.614;14.276;2022-09-09T09:13:23;4.00;;;2.73;;
12314;SDS011;23886;46.614;14.276;2022-09-09T09:15:58;3.30;;;2.70;;
12314;SDS011;23886;46.614;14.276;2022-09-09T09:18:30;3.90;;;3.10;;
12314;SDS011;23886;46.614;14.276;2022-09-09T09:21:01;4.97;;;2.93;;
12314;SDS011;23886;46.614;14.276;2022-09-09T09:23:36;5.40;;;3.17;;
12314;SDS011;23886;46.614;14.276;2022-09-09T09:26:10;4.13;;;2.70;;
12314;SDS011;23886;46.614;14.276;2022-09-09T09:28:37;3.50;;;2.80;;
12314;SDS011;23886;46.614;14.276;2022-09-09T09:31:08;3.73;;;2.50;;
12314;SDS011;23886;46.614;14.276;2022-09-09T09:33:38;3.40;;;2.33;;
12314;SDS011;23886;46.614;14.276;2022-09-09T09:36:13;3.63;;;2.30;;
12314;SDS011;23886;46.614;14.276;2022-09-09T09:38:51;5.03;;;3.10;;
12314;SDS011;23886;46.614;14.276;2022-09-09T09:41:30;3.77;;;2.33;;
12314;SDS011;23886;46.614;14.276;2022-09-09T09:43:59;2.80;;;2.50;;
12314;SDS011;23886;46.614;14.276;2022-09-09T09:46:30;4.20;;;2.60;;
12314;SDS011;23886;46.614;14.276;2022-09-09T09:48:58;3.40;;;2.33;;
12314;SDS011;23886;46.614;14.276;2022-09-09T09:51:26;3.40;;;2.40;;
12314;SDS011;23886;46.614;14.276;2022-09-09T09:53:54;2.80;;;2.27;;
12314;SDS011;23886;46.614;14.276;2022-09-09T09:56:35;4.30;;;2.43;;
12314;SDS011;23886;46.614;14.276;2022-09-09T09:59:03;2.93;;;2.20;;
12314;SDS011;23886;46.614;14.276;2022-09-09T10:01:32;2.27;;;2.00;;
12314;SDS011;23886;46.614;14.276;2022-09-09T10:04:00;2.87;;;2.17;;
12314;SDS011;23886;46.614;14.276;2022-09-09T10:06:29;5.03;;;2.30;;
12314;SDS011;23886;46.614;14.276;2022-09-09T10:08:57;2.97;;;2.47;;
12314;SDS011;23886;46.614;14.276;2022-09-09T10:11:37;2.77;;;1.90;;
12314;SDS011;23886;46.614;14.276;2022-09-09T10:14:16;2.57;;;2.00;;
12314;SDS011;23886;46.614;14.276;2022-09-09T10:16:52;2.43;;;1.90;;
12314;SDS011;23886;46.614;14.276;2022-09-09T10:19:29;5.43;;;2.37;;
12314;SDS011;23886;46.614;14.276;2022-09-09T10:22:02;2.40;;;2.13;;
12314;SDS011;23886;46.614;14.276;2022-09-09T10:24:51;2.50;;;1.97;;
12314;SDS011;23886;46.614;14.276;2022-09-09T10:27:37;4.97;;;2.07;;
12314;SDS011;23886;46.614;14.276;2022-09-09T10:30:13;2.70;;;2.40;;
12314;SDS011;23886;46.614;14.276;2022-09-09T10:32:49;2.87;;;2.30;;
12314;SDS011;23886;46.614;14.276;2022-09-09T10:35:25;5.57;;;2.87;;
12314;SDS011;23886;46.614;14.276;2022-09-09T10:40:49;2.27;;;2.10;;
12314;SDS011;23886;46.614;14.276;2022-09-09T10:43:34;3.17;;;2.30;;
12314;SDS011;23886;46.614;14.276;2022-09-09T10:46:13;2.20;;;2.00;;
12314;SDS011;23886;46.614;14.276;2022-09-09T10:48:53;4.07;;;3.13;;
12314;SDS011;23886;46.614;14.276;2022-09-09T10:51:33;3.20;;;2.40;;
12314;SDS011;23886;46.614;14.276;2022-09-09T10:54:12;2.53;;;2.20;;
12314;SDS011;23886;46.614;14.276;2022-09-09T10:56:52;2.37;;;2.17;;
12314;SDS011;23886;46.614;14.276;2022-09-09T10:59:23;2.27;;;1.87;;
12314;SDS011;23886;46.614;14.276;2022-09-09T11:01:54;2.00;;;1.80;;
12314;SDS011;23886;46.614;14.276;2022-09-09T11:04:29;2.53;;;2.00;;
12314;SDS011;23886;46.614;14.276;2022-09-09T11:07:00;4.13;;;2.17;;
12314;SDS011;23886;46.614;14.276;2022-09-09T11:09:32;2.80;;;2.00;;
12314;SDS011;23886;46.614;14.276;2022-09-09T11:12:04;4.00;;;2.10;;
12314;SDS011;23886;46.614;14.276;2022-09-09T11:14:36;2.20;;;1.97;;
12314;SDS011;23886;46.614;14.276;2022-09-09T11:17:09;2.57;;;2.20;;
12314;SDS011;23886;46.614;14.276;2022-09-09T11:19:40;3.20;;;2.27;;
12314;SDS011;23886;46.614;14.276;2022-09-09T11:22:14;2.30;;;1.90;;
12314;SDS011;23886;46.614;14.276;2022-09-09T11:24:49;2.77;;;2.57;;
12314;SDS011;23886;46.614;14.276;2022-09-09T11:27:20;2.33;;;2.13;;
12314;SDS011;23886;46.614;14.276;2022-09-09T11:30:02;2.70;;;2.20;;
12314;SDS011;23886;46.614;14.276;2022-09-09T11:33:03;2.73;;;2.53;;
12314;SDS011;23886;46.614;14.276;2022-09-09T11:38:58;3.17;;;1.90;;
12314;SDS011;23886;46.614;14.276;2022-09-09T11:41:33;2.13;;;1.77;;
12314;SDS011;23886;46.614;14.276;2022-09-09T11:44:09;2.27;;;1.90;;
12314;SDS011;23886;46.614;14.276;2022-09-09T11:46:37;3.40;;;1.90;;
12314;SDS011;23886;46.614;14.276;2022-09-09T11:49:21;1.83;;;1.73;;
12314;SDS011;23886;46.614;14.276;2022-09-09T11:51:54;1.63;;;1.50;;
12314;SDS011;23886;46.614;14.276;2022-09-09T11:54:27;2.30;;;2.10;;
12314;SDS011;23886;46.614;14.276;2022-09-09T11:56:57;2.50;;;1.60;;
12314;SDS011;23886;46.614;14.276;2022-09-09T11:59:25;3.63;;;1.90;;
12314;SDS011;23886;46.614;14.276;2022-09-09T12:01:54;2.60;;;2.00;;
12314;SDS011;23886;46.614;14.276;2022-09-09T12:04:34;1.90;;;1.70;;
12314;SDS011;23886;46.614;14.276;2022-09-09T12:07:22;1.90;;;1.70;;
12314;SDS011;23886;46.614;14.276;2022-09-09T12:09:56;2.20;;;1.90;;
12314;SDS011;23886;46.614;14.276;2022-09-09T12:12:29;1.70;;;1.60;;
12314;SDS011;23886;46.614;14.276;2022-09-09T12:17:54;2.83;;;2.00;;
12314;SDS011;23886;46.614;14.276;2022-09-09T12:20:23;1.90;;;1.80;;
12314;SDS011;23886;46.614;14.276;2022-09-09T12:25:54;2.43;;;1.80;;
12314;SDS011;23886;46.614;14.276;2022-09-09T12:28:37;3.83;;;3.27;;
12314;SDS011;23886;46.614;14.276;2022-09-09T12:31:10;3.93;;;2.37;;
12314;SDS011;23886;46.614;14.276;2022-09-09T12:33:44;2.30;;;1.90;;
12314;SDS011;23886;46.614;14.276;2022-09-09T12:36:14;3.13;;;1.70;;
12314;SDS011;23886;46.614;14.276;2022-09-09T12:38:46;1.80;;;1.50;;
12314;SDS011;23886;46.614;14.276;2022-09-09T12:41:25;1.73;;;1.43;;
12314;SDS011;23886;46.614;14.276;2022-09-09T12:44:02;1.60;;;1.50;;
12314;SDS011;23886;46.614;14.276;2022-09-09T12:46:33;3.07;;;1.60;;
12314;SDS011;23886;46.614;14.276;2022-09-09T12:49:03;1.73;;;1.50;;
12314;SDS011;23886;46.614;14.276;2022-09-09T12:51:31;1.83;;;1.50;;
12314;SDS011;23886;46.614;14.276;2022-09-09T12:54:01;2.25;;;1.75;;
12314;SDS011;23886;46.614;14.276;2022-09-09T12:56:30;2.33;;;1.57;;
12314;SDS011;23886;46.614;14.276;2022-09-09T12:58:58;3.93;;;1.60;;
12314;SDS011;23886;46.614;14.276;2022-09-09T13:01:26;2.20;;;2.00;;
12314;SDS011;23886;46.614;14.276;2022-09-09T13:03:55;1.60;;;1.50;;
12314;SDS011;23886;46.614;14.276;2022-09-09T13:06:23;2.13;;;1.73;;
12314;SDS011;23886;46.614;14.276;2022-09-09T13:08:52;3.13;;;1.60;;
12314;SDS011;23886;46.614;14.276;2022-09-09T13:11:22;1.60;;;1.50;;
12314;SDS011;23886;46.614;14.276;2022-09-09T13:13:53;1.57;;;1.33;;
12314;SDS011;23886;46.614;14.276;2022-09-09T13:16:23;2.30;;;1.70;;
12314;SDS011;23886;46.614;14.276;2022-09-09T13:18:55;3.03;;;1.67;;
12314;SDS011;23886;46.614;14.276;2022-09-09T13:21:30;1.80;;;1.60;;
12314;SDS011;23886;46.614;14.276;2022-09-09T13:23:59;2.10;;;1.70;;
12314;SDS011;23886;46.614;14.276;2022-09-09T13:26:29;3.23;;;1.70;;
12314;SDS011;23886;46.614;14.276;2022-09-09T13:29:07;1.57;;;1.47;;
12314;SDS011;23886;46.614;14.276;2022-09-09T13:31:42;2.43;;;1.70;;
12314;SDS011;23886;46.614;14.276;2022-09-09T13:34:10;2.30;;;1.73;;
12314;SDS011;23886;46.614;14.276;2022-09-09T13:36:39;1.37;;;1.27;;
12314;SDS011;23886;46.614;14.276;2022-09-09T13:39:14;1.60;;;1.50;;
12314;SDS011;23886;46.614;14.276;2022-09-09T13:41:45;2.23;;;1.50;;
12314;SDS011;23886;46.614;14.276;2022-09-09T13:44:17;1.40;;;1.30;;
12314;SDS011;23886;46.614;14.276;2022-09-09T13:46:58;2.50;;;1.60;;
12314;SDS011;23886;46.614;14.276;2022-09-09T13:49:28;2.07;;;1.50;;
12314;SDS011;23886;46.614;14.276;2022-09-09T13:52:06;1.97;;;1.50;;
12314;SDS011;23886;46.614;14.276;2022-09-09T13:54:38;1.90;;;1.70;;
12314;SDS011;23886;46.614;14.276;2022-09-09T13:57:12;2.00;;;1.67;;
12314;SDS011;23886;46.614;14.276;2022-09-09T13:59:42;2.80;;;1.60;;
12314;SDS011;23886;46.614;14.276;2022-09-09T14:02:09;2.80;;;1.87;;
12314;SDS011;23886;46.614;14.276;2022-09-09T14:04:36;1.93;;;1.70;;
12314;SDS011;23886;46.614;14.276;2022-09-09T14:07:03;2.20;;;1.63;;
12314;SDS011;23886;46.614;14.276;2022-09-09T14:09:30;4.77;;;1.70;;
12314;SDS011;23886;46.614;14.276;2022-09-09T14:11:57;1.77;;;1.57;;
12314;SDS011;23886;46.614;14.276;2022-09-09T14:14:26;1.97;;;1.77;;
12314;SDS011;23886;46.614;14.276;2022-09-09T14:16:53;1.80;;;1.70;;
12314;SDS011;23886;46.614;14.276;2022-09-09T14:19:20;1.73;;;1.53;;
12314;SDS011;23886;46.614;14.276;2022-09-09T14:21:48;1.87;;;1.67;;
12314;SDS011;23886;46.614;14.276;2022-09-09T14:24:15;1.80;;;1.70;;
12314;SDS011;23886;46.614;14.276;2022-09-09T14:26:42;2.10;;;1.83;;
12314;SDS011;23886;46.614;14.276;2022-09-09T14:29:09;5.03;;;4.43;;
12314;SDS011;23886;46.614;14.276;2022-09-09T14:31:38;3.60;;;3.30;;
12314;SDS011;23886;46.614;14.276;2022-09-09T14:34:05;2.03;;;1.87;;
12314;SDS011;23886;46.614;14.276;2022-09-09T14:36:32;2.33;;;1.70;;
12314;SDS011;23886;46.614;14.276;2022-09-09T14:38:59;4.93;;;1.93;;
12314;SDS011;23886;46.614;14.276;2022-09-09T14:41:26;3.67;;;2.00;;
12314;SDS011;23886;46.614;14.276;2022-09-09T14:43:54;2.37;;;2.17;;
12314;SDS011;23886;46.614;14.276;2022-09-09T14:46:22;2.70;;;2.17;;
12314;SDS011;23886;46.614;14.276;2022-09-09T14:48:50;3.43;;;1.97;;
12314;SDS011;23886;46.614;14.276;2022-09-09T14:51:18;2.10;;;1.90;;
12314;SDS011;23886;46.614;14.276;2022-09-09T14:53:47;3.00;;;2.00;;
12314;SDS011;23886;46.614;14.276;2022-09-09T14:56:18;2.00;;;1.70;;
12314;SDS011;23886;46.614;14.276;2022-09-09T14:58:48;2.50;;;1.97;;
12314;SDS011;23886;46.614;14.276;2022-09-09T15:01:16;2.43;;;1.80;;
12314;SDS011;23886;46.614;14.276;2022-09-09T15:03:48;2.83;;;2.30;;
12314;SDS011;23886;46.614;14.276;2022-09-09T15:06:18;3.10;;;2.20;;
12314;SDS011;23886;46.614;14.276;2022-09-09T15:08:46;2.40;;;2.00;;
12314;SDS011;23886;46.614;14.276;2022-09-09T15:11:15;2.57;;;2.10;;
12314;SDS011;23886;46.614;14.276;2022-09-09T15:13:43;2.67;;;2.10;;